<?xml version='1.0' encoding='UTF-8'?>
<gpx xmlns="http://www.topografix.com/GPX/1/1" creator="www.balnam.be" version="1.1" xmlns:xsi="http://www.w3.org/2001/XMLSchema-instance" xsi:schemaLocation="http://www.topografix.com/GPX/1/1 http://www.topografix.com/GPX/1/1/gpx.xsd">
<trk>
<name>ngdbn1</name>
<cmt>r</cmt>
<desc>Bourseigne-Neuve Chemin n°1 Rue du Tienne de Lune / ?</desc>
<link href="https://chemins.be/bourseigneneuve/chemin/1"/><trkseg>
<trkpt lat="50.024585" lon="4.857989"><time>2026-05-03T05:38:08Z</time></trkpt>
<trkpt lat="50.025749" lon="4.859229"><time>2026-05-03T05:48:08Z</time></trkpt>
<trkpt lat="50.026921" lon="4.860539"><time>2026-05-03T05:58:08Z</time></trkpt>
<trkpt lat="50.028998" lon="4.862654"><time>2026-05-03T06:08:08Z</time></trkpt>
<trkpt lat="50.030964" lon="4.865465"><time>2026-05-03T06:18:08Z</time></trkpt>
<trkpt lat="50.032247" lon="4.868187"><time>2026-05-03T06:28:08Z</time></trkpt>
<trkpt lat="50.032655" lon="4.869461"><time>2026-05-03T06:38:08Z</time></trkpt>
</trkseg></trk>
<trk>
<name>ngdbn1</name>
<cmt>v</cmt>
<desc>Bourseigne-Neuve Chemin n°1 Rue du Tienne de Lune / ?</desc>
<link href="https://chemins.be/bourseigneneuve/chemin/1"/><trkseg>
<trkpt lat="50.032655" lon="4.869461"><time>2026-05-03T06:38:08Z</time></trkpt>
<trkpt lat="50.032842" lon="4.869924"><time>2026-05-03T06:48:08Z</time></trkpt>
<trkpt lat="50.033143" lon="4.873039"><time>2026-05-03T06:58:08Z</time></trkpt>
<trkpt lat="50.032904" lon="4.874112"><time>2026-05-03T07:08:08Z</time></trkpt>
<trkpt lat="50.033105" lon="4.875384"><time>2026-05-03T07:18:08Z</time></trkpt>
<trkpt lat="50.032262" lon="4.876924"><time>2026-05-03T07:28:08Z</time></trkpt>
<trkpt lat="50.031988" lon="4.878052"><time>2026-05-03T07:38:08Z</time></trkpt>
<trkpt lat="50.032300" lon="4.878697"><time>2026-05-03T07:48:08Z</time></trkpt>
<trkpt lat="50.032231" lon="4.880023"><time>2026-05-03T07:58:08Z</time></trkpt>
<trkpt lat="50.032044" lon="4.881556"><time>2026-05-03T08:08:08Z</time></trkpt>
<trkpt lat="50.030975" lon="4.883373"><time>2026-05-03T08:18:08Z</time></trkpt>
</trkseg></trk>
<trk>
<name>ngdbn1</name>
<cmt>r</cmt>
<desc>Bourseigne-Neuve Chemin n°1 Rue du Tienne de Lune / ?</desc>
<link href="https://chemins.be/bourseigneneuve/chemin/1"/><trkseg>
<trkpt lat="50.030975" lon="4.883373"><time>2026-05-03T08:18:08Z</time></trkpt>
<trkpt lat="50.031122" lon="4.884812"><time>2026-05-03T08:28:08Z</time></trkpt>
<trkpt lat="50.031836" lon="4.885867"><time>2026-05-03T08:38:08Z</time></trkpt>
<trkpt lat="50.033876" lon="4.886070"><time>2026-05-03T08:48:08Z</time></trkpt>
<trkpt lat="50.035434" lon="4.887539"><time>2026-05-03T08:58:08Z</time></trkpt>
</trkseg></trk>
<trk>
<name>ngdbn1</name>
<cmt>v</cmt>
<desc>Bourseigne-Neuve Chemin n°1 Rue du Tienne de Lune / ?</desc>
<link href="https://chemins.be/bourseigneneuve/chemin/1"/><trkseg>
<trkpt lat="50.035434" lon="4.887539"><time>2026-05-03T08:58:08Z</time></trkpt>
<trkpt lat="50.036126" lon="4.887505"><time>2026-05-03T09:08:08Z</time></trkpt>
<trkpt lat="50.036738" lon="4.888262"><time>2026-05-03T09:18:08Z</time></trkpt>
<trkpt lat="50.037368" lon="4.889291"><time>2026-05-03T09:28:08Z</time></trkpt>
</trkseg></trk>
<trk>
<name>ngdbn1</name>
<cmt>d</cmt>
<desc>Bourseigne-Neuve Chemin n°1 Rue du Tienne de Lune / ?</desc>
<link href="https://chemins.be/bourseigneneuve/chemin/1"/><trkseg>
<trkpt lat="50.037368" lon="4.889291"><time>2026-05-03T09:28:08Z</time></trkpt>
<trkpt lat="50.037190" lon="4.890894"><time>2026-05-03T09:38:08Z</time></trkpt>
</trkseg>
</trk>
</gpx>